LEIB/IBZ METAR and TAF weather

Enter ICAO airport designator
Station Type Date Time Source
LEIB METAR 2019/08/24 23:00 UTC NOAA

LEIB 242300Z VRB02KT 9999 FEW018 24/21 Q1018 NOSIG


Station Type Date Time Source
LEIB Decoded METAR 2019/08/24 23:00 UTC NOAA

Station name not available
Aug 24, 2019 - 07:00 PM EDT / 2019.08.24 2300 UTC
Wind: Variable at 2 MPH (2 KT):0
Visibility: greater than 7 mile(s):0
Sky conditions: mostly clear
Temperature: 75 F (24 C)
Dew Point: 69 F (21 C)
Relative Humidity: 83%
Pressure (altimeter): 30.06 in. Hg (1018 hPa)
ob: LEIB 242300Z VRB02KT 9999 FEW018 24/21 Q1018 NOSIG
cycle: 23

Station Type Date Time Source
LEIB TAF 2019/08/24 21:31 UTC NOAA

TAF LEIB 242000Z 2421/2521 03004KT 9999 FEW020 TX29/2512Z TN21/2505Z PROB30
TEMPO 2500/2506 4000 BR BKN014
BECMG 2507/2509 09010KT

Example: see airport list